sensor_id;sensor_type;location;lat;lon;timestamp;P1;durP1;ratioP1;P2;durP2;ratioP2
67749;SDS011;54550;48.838;8.828;2022-07-24T00:00:17;13.17;;;8.47;;
67749;SDS011;54550;48.838;8.828;2022-07-24T00:02:42;10.37;;;9.07;;
67749;SDS011;54550;48.838;8.828;2022-07-24T00:05:08;12.50;;;9.27;;
67749;SDS011;54550;48.838;8.828;2022-07-24T00:07:35;8.97;;;8.07;;
67749;SDS011;54550;48.838;8.828;2022-07-24T00:10:02;13.97;;;8.77;;
67749;SDS011;54550;48.838;8.828;2022-07-24T00:12:28;16.10;;;9.80;;
67749;SDS011;54550;48.838;8.828;2022-07-24T00:14:54;12.70;;;9.03;;
67749;SDS011;54550;48.838;8.828;2022-07-24T00:17:19;11.27;;;9.17;;
67749;SDS011;54550;48.838;8.828;2022-07-24T00:19:45;10.90;;;9.07;;
67749;SDS011;54550;48.838;8.828;2022-07-24T00:22:10;11.70;;;8.67;;
67749;SDS011;54550;48.838;8.828;2022-07-24T00:24:36;13.87;;;9.10;;
67749;SDS011;54550;48.838;8.828;2022-07-24T00:27:01;11.10;;;8.70;;
67749;SDS011;54550;48.838;8.828;2022-07-24T00:29:27;11.80;;;8.40;;
67749;SDS011;54550;48.838;8.828;2022-07-24T00:31:53;14.73;;;9.73;;
67749;SDS011;54550;48.838;8.828;2022-07-24T00:34:19;12.50;;;8.63;;
67749;SDS011;54550;48.838;8.828;2022-07-24T00:36:45;13.87;;;9.00;;
67749;SDS011;54550;48.838;8.828;2022-07-24T00:39:10;11.23;;;8.80;;
67749;SDS011;54550;48.838;8.828;2022-07-24T00:41:36;8.63;;;7.83;;
67749;SDS011;54550;48.838;8.828;2022-07-24T00:46:35;13.37;;;8.67;;
67749;SDS011;54550;48.838;8.828;2022-07-24T00:49:04;9.33;;;8.23;;
67749;SDS011;54550;48.838;8.828;2022-07-24T00:51:31;10.93;;;7.60;;
67749;SDS011;54550;48.838;8.828;2022-07-24T00:53:58;9.07;;;6.60;;
67749;SDS011;54550;48.838;8.828;2022-07-24T00:56:24;8.50;;;7.60;;
67749;SDS011;54550;48.838;8.828;2022-07-24T00:58:49;14.87;;;7.97;;
67749;SDS011;54550;48.838;8.828;2022-07-24T01:01:15;14.63;;;8.50;;
67749;SDS011;54550;48.838;8.828;2022-07-24T01:03:41;10.30;;;7.17;;
67749;SDS011;54550;48.838;8.828;2022-07-24T01:06:07;11.87;;;7.70;;
67749;SDS011;54550;48.838;8.828;2022-07-24T01:08:33;11.33;;;7.63;;
67749;SDS011;54550;48.838;8.828;2022-07-24T01:11:00;13.57;;;7.83;;
67749;SDS011;54550;48.838;8.828;2022-07-24T01:13:26;11.50;;;7.60;;
67749;SDS011;54550;48.838;8.828;2022-07-24T01:15:54;9.53;;;8.20;;
67749;SDS011;54550;48.838;8.828;2022-07-24T01:18:19;10.90;;;8.63;;
67749;SDS011;54550;48.838;8.828;2022-07-24T01:20:45;8.70;;;7.57;;
67749;SDS011;54550;48.838;8.828;2022-07-24T01:23:12;12.73;;;8.10;;
67749;SDS011;54550;48.838;8.828;2022-07-24T01:25:38;8.70;;;7.80;;
67749;SDS011;54550;48.838;8.828;2022-07-24T01:28:04;8.60;;;7.10;;
67749;SDS011;54550;48.838;8.828;2022-07-24T01:30:30;12.10;;;8.03;;
67749;SDS011;54550;48.838;8.828;2022-07-24T01:32:56;8.90;;;8.00;;
67749;SDS011;54550;48.838;8.828;2022-07-24T01:35:22;12.47;;;7.97;;
67749;SDS011;54550;48.838;8.828;2022-07-24T01:37:47;8.60;;;7.47;;
67749;SDS011;54550;48.838;8.828;2022-07-24T01:40:13;9.60;;;6.83;;
67749;SDS011;54550;48.838;8.828;2022-07-24T01:42:38;11.57;;;8.90;;
67749;SDS011;54550;48.838;8.828;2022-07-24T01:45:04;10.13;;;8.23;;
67749;SDS011;54550;48.838;8.828;2022-07-24T01:47:30;9.60;;;6.97;;
67749;SDS011;54550;48.838;8.828;2022-07-24T01:49:56;9.57;;;7.67;;
67749;SDS011;54550;48.838;8.828;2022-07-24T01:52:22;10.13;;;7.97;;
67749;SDS011;54550;48.838;8.828;2022-07-24T01:54:50;11.50;;;8.40;;
67749;SDS011;54550;48.838;8.828;2022-07-24T01:57:16;8.67;;;7.70;;
67749;SDS011;54550;48.838;8.828;2022-07-24T01:59:42;16.20;;;7.37;;
67749;SDS011;54550;48.838;8.828;2022-07-24T02:02:07;13.90;;;8.60;;
67749;SDS011;54550;48.838;8.828;2022-07-24T02:04:33;13.73;;;8.30;;
67749;SDS011;54550;48.838;8.828;2022-07-24T02:06:58;10.20;;;7.73;;
67749;SDS011;54550;48.838;8.828;2022-07-24T02:09:24;10.00;;;7.80;;
67749;SDS011;54550;48.838;8.828;2022-07-24T02:11:50;9.50;;;6.53;;
67749;SDS011;54550;48.838;8.828;2022-07-24T02:14:16;12.00;;;7.90;;
67749;SDS011;54550;48.838;8.828;2022-07-24T02:16:42;10.50;;;7.33;;
67749;SDS011;54550;48.838;8.828;2022-07-24T02:19:07;12.50;;;7.03;;
67749;SDS011;54550;48.838;8.828;2022-07-24T02:21:33;8.50;;;6.97;;
67749;SDS011;54550;48.838;8.828;2022-07-24T02:23:58;7.10;;;6.20;;
67749;SDS011;54550;48.838;8.828;2022-07-24T02:26:24;11.57;;;8.10;;
67749;SDS011;54550;48.838;8.828;2022-07-24T02:28:50;12.03;;;6.70;;
67749;SDS011;54550;48.838;8.828;2022-07-24T02:31:15;9.33;;;7.70;;
67749;SDS011;54550;48.838;8.828;2022-07-24T02:33:41;10.00;;;7.97;;
67749;SDS011;54550;48.838;8.828;2022-07-24T02:36:07;10.53;;;9.13;;
67749;SDS011;54550;48.838;8.828;2022-07-24T02:38:33;9.93;;;8.40;;
67749;SDS011;54550;48.838;8.828;2022-07-24T02:40:59;14.30;;;9.27;;
67749;SDS011;54550;48.838;8.828;2022-07-24T02:43:24;11.53;;;10.10;;
67749;SDS011;54550;48.838;8.828;2022-07-24T02:45:50;10.50;;;8.90;;
67749;SDS011;54550;48.838;8.828;2022-07-24T02:48:15;13.93;;;10.53;;
67749;SDS011;54550;48.838;8.828;2022-07-24T02:50:41;14.37;;;11.37;;
67749;SDS011;54550;48.838;8.828;2022-07-24T02:53:07;14.20;;;10.60;;
67749;SDS011;54550;48.838;8.828;2022-07-24T02:55:32;11.80;;;9.30;;
67749;SDS011;54550;48.838;8.828;2022-07-24T02:57:58;12.70;;;9.50;;
67749;SDS011;54550;48.838;8.828;2022-07-24T03:00:23;10.57;;;9.50;;
67749;SDS011;54550;48.838;8.828;2022-07-24T03:02:49;11.90;;;8.90;;
67749;SDS011;54550;48.838;8.828;2022-07-24T03:05:15;11.37;;;9.30;;
67749;SDS011;54550;48.838;8.828;2022-07-24T03:07:41;11.97;;;9.40;;
67749;SDS011;54550;48.838;8.828;2022-07-24T03:10:08;12.03;;;9.77;;
67749;SDS011;54550;48.838;8.828;2022-07-24T03:12:35;12.90;;;9.17;;
67749;SDS011;54550;48.838;8.828;2022-07-24T03:15:01;13.17;;;11.20;;
67749;SDS011;54550;48.838;8.828;2022-07-24T03:17:27;14.90;;;10.77;;
67749;SDS011;54550;48.838;8.828;2022-07-24T03:19:52;17.40;;;11.73;;
67749;SDS011;54550;48.838;8.828;2022-07-24T03:22:18;14.37;;;10.13;;
67749;SDS011;54550;48.838;8.828;2022-07-24T03:24:43;11.53;;;10.33;;
67749;SDS011;54550;48.838;8.828;2022-07-24T03:27:09;15.90;;;10.00;;
67749;SDS011;54550;48.838;8.828;2022-07-24T03:29:35;14.00;;;10.50;;
67749;SDS011;54550;48.838;8.828;2022-07-24T03:32:01;13.23;;;10.70;;
67749;SDS011;54550;48.838;8.828;2022-07-24T03:34:26;15.80;;;11.47;;
67749;SDS011;54550;48.838;8.828;2022-07-24T03:36:52;14.57;;;11.70;;
67749;SDS011;54550;48.838;8.828;2022-07-24T03:39:18;15.80;;;11.00;;
67749;SDS011;54550;48.838;8.828;2022-07-24T03:41:44;17.83;;;9.50;;
67749;SDS011;54550;48.838;8.828;2022-07-24T03:44:09;12.87;;;11.47;;
67749;SDS011;54550;48.838;8.828;2022-07-24T03:46:35;10.57;;;9.53;;
67749;SDS011;54550;48.838;8.828;2022-07-24T03:49:01;13.83;;;11.53;;
67749;SDS011;54550;48.838;8.828;2022-07-24T03:51:27;18.03;;;10.53;;
67749;SDS011;54550;48.838;8.828;2022-07-24T03:53:53;12.00;;;10.53;;
67749;SDS011;54550;48.838;8.828;2022-07-24T03:56:18;12.50;;;10.50;;
67749;SDS011;54550;48.838;8.828;2022-07-24T03:58:44;16.50;;;10.90;;
67749;SDS011;54550;48.838;8.828;2022-07-24T04:01:10;18.60;;;11.87;;
67749;SDS011;54550;48.838;8.828;2022-07-24T04:03:36;14.10;;;9.73;;
67749;SDS011;54550;48.838;8.828;2022-07-24T04:06:02;17.50;;;10.03;;
67749;SDS011;54550;48.838;8.828;2022-07-24T04:08:28;15.27;;;9.03;;
67749;SDS011;54550;48.838;8.828;2022-07-24T04:10:54;16.87;;;9.30;;
67749;SDS011;54550;48.838;8.828;2022-07-24T04:13:23;12.67;;;9.60;;
67749;SDS011;54550;48.838;8.828;2022-07-24T04:15:50;9.03;;;8.17;;
67749;SDS011;54550;48.838;8.828;2022-07-24T04:18:15;10.40;;;9.10;;
67749;SDS011;54550;48.838;8.828;2022-07-24T04:20:41;11.77;;;8.53;;
67749;SDS011;54550;48.838;8.828;2022-07-24T04:23:07;11.90;;;10.07;;
67749;SDS011;54550;48.838;8.828;2022-07-24T04:25:32;9.77;;;8.57;;
67749;SDS011;54550;48.838;8.828;2022-07-24T04:27:59;11.80;;;9.90;;
67749;SDS011;54550;48.838;8.828;2022-07-24T04:30:25;11.50;;;9.30;;
67749;SDS011;54550;48.838;8.828;2022-07-24T04:32:51;10.67;;;9.07;;
67749;SDS011;54550;48.838;8.828;2022-07-24T04:35:17;12.40;;;9.20;;
67749;SDS011;54550;48.838;8.828;2022-07-24T04:37:42;14.43;;;10.17;;
67749;SDS011;54550;48.838;8.828;2022-07-24T04:40:08;10.30;;;9.30;;
67749;SDS011;54550;48.838;8.828;2022-07-24T04:42:34;22.47;;;9.43;;
67749;SDS011;54550;48.838;8.828;2022-07-24T04:45:00;14.27;;;8.67;;
67749;SDS011;54550;48.838;8.828;2022-07-24T04:47:25;11.43;;;8.90;;
67749;SDS011;54550;48.838;8.828;2022-07-24T04:49:51;9.73;;;8.73;;
67749;SDS011;54550;48.838;8.828;2022-07-24T04:52:16;12.87;;;7.97;;
67749;SDS011;54550;48.838;8.828;2022-07-24T04:54:42;9.13;;;7.10;;
67749;SDS011;54550;48.838;8.828;2022-07-24T04:57:07;20.07;;;8.60;;
67749;SDS011;54550;48.838;8.828;2022-07-24T04:59:33;12.50;;;8.30;;
67749;SDS011;54550;48.838;8.828;2022-07-24T05:01:58;12.37;;;6.77;;
67749;SDS011;54550;48.838;8.828;2022-07-24T05:04:24;8.50;;;7.50;;
67749;SDS011;54550;48.838;8.828;2022-07-24T05:06:49;10.03;;;7.50;;
67749;SDS011;54550;48.838;8.828;2022-07-24T05:09:15;8.60;;;7.67;;
67749;SDS011;54550;48.838;8.828;2022-07-24T05:11:41;8.40;;;6.33;;
67749;SDS011;54550;48.838;8.828;2022-07-24T05:14:06;8.17;;;7.20;;
67749;SDS011;54550;48.838;8.828;2022-07-24T05:16:32;7.53;;;6.73;;
67749;SDS011;54550;48.838;8.828;2022-07-24T05:18:57;10.47;;;6.13;;
67749;SDS011;54550;48.838;8.828;2022-07-24T05:21:23;10.30;;;6.40;;
67749;SDS011;54550;48.838;8.828;2022-07-24T05:23:49;13.90;;;7.60;;
67749;SDS011;54550;48.838;8.828;2022-07-24T05:26:14;9.60;;;6.60;;
67749;SDS011;54550;48.838;8.828;2022-07-24T05:28:40;8.77;;;7.20;;
67749;SDS011;54550;48.838;8.828;2022-07-24T05:31:06;8.40;;;6.80;;
67749;SDS011;54550;48.838;8.828;2022-07-24T05:33:33;8.50;;;6.33;;
67749;SDS011;54550;48.838;8.828;2022-07-24T05:35:59;7.97;;;6.00;;
67749;SDS011;54550;48.838;8.828;2022-07-24T05:38:24;8.27;;;6.50;;
67749;SDS011;54550;48.838;8.828;2022-07-24T05:40:50;7.67;;;5.50;;
67749;SDS011;54550;48.838;8.828;2022-07-24T05:43:15;7.80;;;5.97;;
67749;SDS011;54550;48.838;8.828;2022-07-24T05:45:41;8.00;;;6.17;;
67749;SDS011;54550;48.838;8.828;2022-07-24T05:48:07;6.00;;;5.40;;
67749;SDS011;54550;48.838;8.828;2022-07-24T05:50:33;12.30;;;7.13;;
67749;SDS011;54550;48.838;8.828;2022-07-24T05:52:58;6.80;;;6.07;;
67749;SDS011;54550;48.838;8.828;2022-07-24T05:55:24;9.00;;;5.87;;
67749;SDS011;54550;48.838;8.828;2022-07-24T05:57:50;9.73;;;5.30;;
67749;SDS011;54550;48.838;8.828;2022-07-24T06:00:15;6.10;;;5.50;;
67749;SDS011;54550;48.838;8.828;2022-07-24T06:02:44;7.63;;;5.73;;
67749;SDS011;54550;48.838;8.828;2022-07-24T06:05:11;8.17;;;5.70;;
67749;SDS011;54550;48.838;8.828;2022-07-24T06:07:36;7.00;;;6.30;;
67749;SDS011;54550;48.838;8.828;2022-07-24T06:10:02;11.00;;;6.80;;
67749;SDS011;54550;48.838;8.828;2022-07-24T06:12:28;10.73;;;5.47;;
67749;SDS011;54550;48.838;8.828;2022-07-24T06:14:54;6.73;;;5.90;;
67749;SDS011;54550;48.838;8.828;2022-07-24T06:17:19;7.50;;;6.00;;
67749;SDS011;54550;48.838;8.828;2022-07-24T06:19:45;10.03;;;5.90;;
67749;SDS011;54550;48.838;8.828;2022-07-24T06:22:11;7.80;;;5.83;;
67749;SDS011;54550;48.838;8.828;2022-07-24T06:24:36;6.90;;;5.80;;
67749;SDS011;54550;48.838;8.828;2022-07-24T06:27:02;9.63;;;6.30;;
67749;SDS011;54550;48.838;8.828;2022-07-24T06:29:29;9.93;;;5.57;;
67749;SDS011;54550;48.838;8.828;2022-07-24T06:31:55;10.83;;;5.67;;
67749;SDS011;54550;48.838;8.828;2022-07-24T06:34:21;8.70;;;6.40;;
67749;SDS011;54550;48.838;8.828;2022-07-24T06:36:49;6.23;;;5.60;;
67749;SDS011;54550;48.838;8.828;2022-07-24T06:39:15;6.37;;;5.77;;
67749;SDS011;54550;48.838;8.828;2022-07-24T06:41:41;11.83;;;5.30;;
67749;SDS011;54550;48.838;8.828;2022-07-24T06:44:06;12.73;;;5.47;;
67749;SDS011;54550;48.838;8.828;2022-07-24T06:46:32;8.57;;;5.43;;
67749;SDS011;54550;48.838;8.828;2022-07-24T06:48:58;6.53;;;5.83;;
67749;SDS011;54550;48.838;8.828;2022-07-24T06:51:24;11.90;;;5.73;;
67749;SDS011;54550;48.838;8.828;2022-07-24T06:53:49;7.03;;;5.47;;
67749;SDS011;54550;48.838;8.828;2022-07-24T06:56:15;6.93;;;5.50;;
67749;SDS011;54550;48.838;8.828;2022-07-24T06:58:41;5.30;;;4.53;;
67749;SDS011;54550;48.838;8.828;2022-07-24T07:01:07;5.60;;;5.10;;
67749;SDS011;54550;48.838;8.828;2022-07-24T07:03:32;5.10;;;4.63;;
67749;SDS011;54550;48.838;8.828;2022-07-24T07:05:58;8.40;;;6.20;;
67749;SDS011;54550;48.838;8.828;2022-07-24T07:08:24;7.83;;;6.20;;
67749;SDS011;54550;48.838;8.828;2022-07-24T07:10:49;7.47;;;5.03;;
67749;SDS011;54550;48.838;8.828;2022-07-24T07:13:15;6.03;;;5.43;;
67749;SDS011;54550;48.838;8.828;2022-07-24T07:15:40;6.30;;;5.43;;
67749;SDS011;54550;48.838;8.828;2022-07-24T07:18:06;8.83;;;6.30;;
67749;SDS011;54550;48.838;8.828;2022-07-24T07:20:31;6.37;;;5.77;;
67749;SDS011;54550;48.838;8.828;2022-07-24T07:22:57;7.80;;;5.63;;
67749;SDS011;54550;48.838;8.828;2022-07-24T07:25:23;8.90;;;5.40;;
67749;SDS011;54550;48.838;8.828;2022-07-24T07:27:49;6.70;;;5.30;;
67749;SDS011;54550;48.838;8.828;2022-07-24T07:30:14;8.70;;;6.13;;
67749;SDS011;54550;48.838;8.828;2022-07-24T07:32:41;8.40;;;6.00;;
67749;SDS011;54550;48.838;8.828;2022-07-24T07:35:07;6.50;;;5.90;;
67749;SDS011;54550;48.838;8.828;2022-07-24T07:37:34;6.77;;;6.07;;
67749;SDS011;54550;48.838;8.828;2022-07-24T07:39:59;9.60;;;6.33;;
67749;SDS011;54550;48.838;8.828;2022-07-24T07:42:25;8.20;;;6.57;;
67749;SDS011;54550;48.838;8.828;2022-07-24T07:44:51;6.43;;;5.57;;
67749;SDS011;54550;48.838;8.828;2022-07-24T07:47:16;7.27;;;6.47;;
67749;SDS011;54550;48.838;8.828;2022-07-24T07:49:42;7.60;;;5.43;;
67749;SDS011;54550;48.838;8.828;2022-07-24T07:52:08;8.10;;;6.23;;
67749;SDS011;54550;48.838;8.828;2022-07-24T07:54:34;14.27;;;6.53;;
67749;SDS011;54550;48.838;8.828;2022-07-24T07:57:00;7.90;;;6.67;;
67749;SDS011;54550;48.838;8.828;2022-07-24T07:59:26;7.73;;;6.03;;
67749;SDS011;54550;48.838;8.828;2022-07-24T08:01:51;10.30;;;6.60;;
67749;SDS011;54550;48.838;8.828;2022-07-24T08:04:17;8.33;;;6.93;;
67749;SDS011;54550;48.838;8.828;2022-07-24T08:06:43;6.20;;;5.60;;
67749;SDS011;54550;48.838;8.828;2022-07-24T08:09:09;6.60;;;5.97;;
67749;SDS011;54550;48.838;8.828;2022-07-24T08:11:34;9.67;;;6.20;;
67749;SDS011;54550;48.838;8.828;2022-07-24T08:14:00;6.70;;;5.93;;
67749;SDS011;54550;48.838;8.828;2022-07-24T08:16:25;7.23;;;6.03;;
67749;SDS011;54550;48.838;8.828;2022-07-24T08:18:52;6.60;;;6.00;;
67749;SDS011;54550;48.838;8.828;2022-07-24T08:21:18;9.20;;;6.13;;
67749;SDS011;54550;48.838;8.828;2022-07-24T08:23:44;6.33;;;5.60;;
67749;SDS011;54550;48.838;8.828;2022-07-24T08:26:10;8.10;;;5.47;;
67749;SDS011;54550;48.838;8.828;2022-07-24T08:28:36;5.50;;;5.00;;
67749;SDS011;54550;48.838;8.828;2022-07-24T08:31:02;8.83;;;6.40;;
67749;SDS011;54550;48.838;8.828;2022-07-24T08:33:27;6.73;;;5.73;;
67749;SDS011;54550;48.838;8.828;2022-07-24T08:35:53;9.17;;;6.40;;
67749;SDS011;54550;48.838;8.828;2022-07-24T08:38:18;8.60;;;6.83;;
67749;SDS011;54550;48.838;8.828;2022-07-24T08:40:45;8.50;;;6.07;;
67749;SDS011;54550;48.838;8.828;2022-07-24T08:43:11;10.53;;;6.93;;
67749;SDS011;54550;48.838;8.828;2022-07-24T08:45:38;14.83;;;6.40;;
67749;SDS011;54550;48.838;8.828;2022-07-24T08:48:07;7.03;;;6.17;;
67749;SDS011;54550;48.838;8.828;2022-07-24T08:50:34;8.80;;;6.63;;
67749;SDS011;54550;48.838;8.828;2022-07-24T08:53:02;6.70;;;5.57;;
67749;SDS011;54550;48.838;8.828;2022-07-24T08:55:29;9.33;;;6.63;;
67749;SDS011;54550;48.838;8.828;2022-07-24T08:57:55;8.60;;;5.93;;
67749;SDS011;54550;48.838;8.828;2022-07-24T09:00:22;6.70;;;6.03;;
67749;SDS011;54550;48.838;8.828;2022-07-24T09:02:52;10.00;;;6.03;;
67749;SDS011;54550;48.838;8.828;2022-07-24T09:05:18;7.13;;;6.27;;
67749;SDS011;54550;48.838;8.828;2022-07-24T09:07:44;9.83;;;5.80;;
67749;SDS011;54550;48.838;8.828;2022-07-24T09:10:11;9.17;;;5.40;;
67749;SDS011;54550;48.838;8.828;2022-07-24T09:12:42;8.23;;;5.83;;
67749;SDS011;54550;48.838;8.828;2022-07-24T09:15:17;8.83;;;5.13;;
67749;SDS011;54550;48.838;8.828;2022-07-24T09:17:52;8.30;;;5.40;;
67749;SDS011;54550;48.838;8.828;2022-07-24T09:20:20;7.83;;;5.40;;
67749;SDS011;54550;48.838;8.828;2022-07-24T09:22:46;9.80;;;5.70;;
67749;SDS011;54550;48.838;8.828;2022-07-24T09:25:25;6.47;;;5.53;;
67749;SDS011;54550;48.838;8.828;2022-07-24T09:27:53;11.10;;;5.53;;
67749;SDS011;54550;48.838;8.828;2022-07-24T09:35:21;12.70;;;5.90;;
67749;SDS011;54550;48.838;8.828;2022-07-24T09:37:55;9.57;;;5.23;;
67749;SDS011;54550;48.838;8.828;2022-07-24T09:40:23;7.13;;;5.27;;
67749;SDS011;54550;48.838;8.828;2022-07-24T09:42:56;5.60;;;5.10;;
67749;SDS011;54550;48.838;8.828;2022-07-24T09:48:24;6.63;;;5.17;;
67749;SDS011;54550;48.838;8.828;2022-07-24T09:50:55;8.70;;;5.20;;
67749;SDS011;54550;48.838;8.828;2022-07-24T09:53:24;14.73;;;5.40;;
67749;SDS011;54550;48.838;8.828;2022-07-24T09:56:02;6.30;;;5.17;;
67749;SDS011;54550;48.838;8.828;2022-07-24T09:58:30;10.97;;;5.00;;
67749;SDS011;54550;48.838;8.828;2022-07-24T10:00:57;9.10;;;5.47;;
67749;SDS011;54550;48.838;8.828;2022-07-24T10:03:26;5.93;;;4.60;;
67749;SDS011;54550;48.838;8.828;2022-07-24T10:05:54;5.20;;;4.70;;
67749;SDS011;54550;48.838;8.828;2022-07-24T10:08:24;5.53;;;4.90;;
67749;SDS011;54550;48.838;8.828;2022-07-24T10:10:51;7.60;;;5.77;;
67749;SDS011;54550;48.838;8.828;2022-07-24T10:13:17;5.37;;;4.83;;
67749;SDS011;54550;48.838;8.828;2022-07-24T10:15:53;5.63;;;4.83;;
67749;SDS011;54550;48.838;8.828;2022-07-24T10:18:50;7.40;;;5.80;;
67749;SDS011;54550;48.838;8.828;2022-07-24T10:29:05;5.20;;;4.70;;
67749;SDS011;54550;48.838;8.828;2022-07-24T10:31:44;6.80;;;6.10;;
67749;SDS011;54550;48.838;8.828;2022-07-24T10:34:33;5.70;;;5.07;;
67749;SDS011;54550;48.838;8.828;2022-07-24T10:45:30;7.83;;;6.30;;
67749;SDS011;54550;48.838;8.828;2022-07-24T10:53:27;6.73;;;5.20;;
67749;SDS011;54550;48.838;8.828;2022-07-24T10:56:55;7.37;;;4.53;;
67749;SDS011;54550;48.838;8.828;2022-07-24T11:01:31;5.67;;;5.07;;
67749;SDS011;54550;48.838;8.828;2022-07-24T11:06:45;7.43;;;5.07;;
67749;SDS011;54550;48.838;8.828;2022-07-24T11:09:13;6.60;;;5.40;;
67749;SDS011;54550;48.838;8.828;2022-07-24T11:11:41;7.30;;;5.10;;
67749;SDS011;54550;48.838;8.828;2022-07-24T11:20:03;7.40;;;4.83;;
67749;SDS011;54550;48.838;8.828;2022-07-24T11:22:44;7.87;;;5.20;;
67749;SDS011;54550;48.838;8.828;2022-07-24T11:25:15;7.57;;;6.63;;
67749;SDS011;54550;48.838;8.828;2022-07-24T11:27:43;6.67;;;5.50;;
67749;SDS011;54550;48.838;8.828;2022-07-24T11:30:18;6.77;;;5.57;;
67749;SDS011;54550;48.838;8.828;2022-07-24T11:32:44;8.03;;;6.50;;
67749;SDS011;54550;48.838;8.828;2022-07-24T11:35:10;9.10;;;6.17;;
67749;SDS011;54550;48.838;8.828;2022-07-24T11:37:37;7.50;;;6.20;;
67749;SDS011;54550;48.838;8.828;2022-07-24T11:40:04;8.70;;;6.10;;
67749;SDS011;54550;48.838;8.828;2022-07-24T11:42:32;8.10;;;6.07;;
67749;SDS011;54550;48.838;8.828;2022-07-24T11:44:59;9.37;;;5.70;;
67749;SDS011;54550;48.838;8.828;2022-07-24T11:47:26;8.90;;;6.17;;
67749;SDS011;54550;48.838;8.828;2022-07-24T11:50:02;6.13;;;4.70;;
67749;SDS011;54550;48.838;8.828;2022-07-24T11:52:38;8.63;;;6.10;;
67749;SDS011;54550;48.838;8.828;2022-07-24T11:55:09;6.30;;;5.67;;
67749;SDS011;54550;48.838;8.828;2022-07-24T11:57:40;12.20;;;6.37;;
67749;SDS011;54550;48.838;8.828;2022-07-24T12:00:10;13.43;;;6.50;;
67749;SDS011;54550;48.838;8.828;2022-07-24T12:02:42;10.00;;;6.60;;
67749;SDS011;54550;48.838;8.828;2022-07-24T12:05:13;7.10;;;6.07;;
67749;SDS011;54550;48.838;8.828;2022-07-24T12:07:47;6.40;;;5.70;;
67749;SDS011;54550;48.838;8.828;2022-07-24T12:10:13;8.67;;;5.90;;
67749;SDS011;54550;48.838;8.828;2022-07-24T12:12:43;6.30;;;5.40;;
67749;SDS011;54550;48.838;8.828;2022-07-24T12:15:11;6.10;;;5.23;;
67749;SDS011;54550;48.838;8.828;2022-07-24T12:17:58;6.63;;;5.97;;
67749;SDS011;54550;48.838;8.828;2022-07-24T12:20:28;7.70;;;6.13;;
67749;SDS011;54550;48.838;8.828;2022-07-24T12:23:03;8.73;;;5.57;;
67749;SDS011;54550;48.838;8.828;2022-07-24T12:25:31;6.77;;;5.80;;
67749;SDS011;54550;48.838;8.828;2022-07-24T12:30:53;6.97;;;5.60;;
67749;SDS011;54550;48.838;8.828;2022-07-24T12:33:20;7.93;;;5.80;;
67749;SDS011;54550;48.838;8.828;2022-07-24T12:35:58;10.30;;;5.40;;
67749;SDS011;54550;48.838;8.828;2022-07-24T12:39:01;5.83;;;5.33;;
67749;SDS011;54550;48.838;8.828;2022-07-24T12:41:26;6.60;;;5.63;;
67749;SDS011;54550;48.838;8.828;2022-07-24T12:43:53;6.37;;;5.77;;
67749;SDS011;54550;48.838;8.828;2022-07-24T12:46:21;5.50;;;4.97;;
67749;SDS011;54550;48.838;8.828;2022-07-24T12:51:56;12.63;;;5.77;;
67749;SDS011;54550;48.838;8.828;2022-07-24T12:54:32;6.70;;;5.17;;
67749;SDS011;54550;48.838;8.828;2022-07-24T12:56:59;7.03;;;5.33;;
67749;SDS011;54550;48.838;8.828;2022-07-24T12:59:30;11.30;;;6.00;;
67749;SDS011;54550;48.838;8.828;2022-07-24T13:02:01;6.17;;;5.50;;
67749;SDS011;54550;48.838;8.828;2022-07-24T13:04:29;10.00;;;6.07;;
67749;SDS011;54550;48.838;8.828;2022-07-24T13:06:55;6.90;;;5.20;;
67749;SDS011;54550;48.838;8.828;2022-07-24T13:09:22;8.50;;;6.33;;
67749;SDS011;54550;48.838;8.828;2022-07-24T13:11:49;13.63;;;6.57;;
67749;SDS011;54550;48.838;8.828;2022-07-24T13:14:17;12.37;;;5.57;;
67749;SDS011;54550;48.838;8.828;2022-07-24T13:16:46;9.13;;;5.90;;
67749;SDS011;54550;48.838;8.828;2022-07-24T13:19:13;5.97;;;5.23;;
67749;SDS011;54550;48.838;8.828;2022-07-24T13:21:39;9.27;;;5.60;;
67749;SDS011;54550;48.838;8.828;2022-07-24T13:24:05;6.23;;;5.40;;
67749;SDS011;54550;48.838;8.828;2022-07-24T13:26:36;6.13;;;5.23;;
67749;SDS011;54550;48.838;8.828;2022-07-24T13:29:02;9.80;;;4.67;;
67749;SDS011;54550;48.838;8.828;2022-07-24T13:31:28;8.30;;;5.57;;
67749;SDS011;54550;48.838;8.828;2022-07-24T13:33:54;6.20;;;5.10;;
67749;SDS011;54550;48.838;8.828;2022-07-24T13:36:19;5.97;;;5.37;;
67749;SDS011;54550;48.838;8.828;2022-07-24T13:38:45;6.17;;;5.30;;
67749;SDS011;54550;48.838;8.828;2022-07-24T13:41:11;7.30;;;5.57;;
67749;SDS011;54550;48.838;8.828;2022-07-24T13:43:38;9.20;;;5.90;;
67749;SDS011;54550;48.838;8.828;2022-07-24T13:46:04;5.83;;;5.17;;
67749;SDS011;54550;48.838;8.828;2022-07-24T13:48:29;7.00;;;5.87;;
67749;SDS011;54550;48.838;8.828;2022-07-24T13:50:55;7.73;;;6.93;;
67749;SDS011;54550;48.838;8.828;2022-07-24T13:53:21;5.80;;;5.30;;
67749;SDS011;54550;48.838;8.828;2022-07-24T13:55:47;8.63;;;5.87;;
67749;SDS011;54550;48.838;8.828;2022-07-24T13:58:13;7.90;;;5.77;;
67749;SDS011;54550;48.838;8.828;2022-07-24T14:00:39;5.90;;;5.30;;
67749;SDS011;54550;48.838;8.828;2022-07-24T14:03:04;8.50;;;6.13;;
67749;SDS011;54550;48.838;8.828;2022-07-24T14:05:30;8.27;;;5.00;;
67749;SDS011;54550;48.838;8.828;2022-07-24T14:07:55;5.83;;;5.23;;
67749;SDS011;54550;48.838;8.828;2022-07-24T14:10:21;5.60;;;5.10;;
67749;SDS011;54550;48.838;8.828;2022-07-24T14:12:48;7.83;;;5.67;;
67749;SDS011;54550;48.838;8.828;2022-07-24T14:15:13;6.70;;;5.37;;
67749;SDS011;54550;48.838;8.828;2022-07-24T14:17:40;7.50;;;5.27;;
67749;SDS011;54550;48.838;8.828;2022-07-24T14:20:07;8.00;;;5.13;;
67749;SDS011;54550;48.838;8.828;2022-07-24T14:22:35;10.93;;;5.70;;
67749;SDS011;54550;48.838;8.828;2022-07-24T14:25:02;6.00;;;5.23;;
67749;SDS011;54550;48.838;8.828;2022-07-24T14:27:28;9.50;;;5.80;;
67749;SDS011;54550;48.838;8.828;2022-07-24T14:29:54;6.83;;;5.63;;
67749;SDS011;54550;48.838;8.828;2022-07-24T14:32:20;10.00;;;6.37;;
67749;SDS011;54550;48.838;8.828;2022-07-24T14:34:45;8.83;;;5.27;;
67749;SDS011;54550;48.838;8.828;2022-07-24T14:37:11;7.17;;;5.80;;
67749;SDS011;54550;48.838;8.828;2022-07-24T14:39:36;7.17;;;5.20;;
67749;SDS011;54550;48.838;8.828;2022-07-24T14:42:02;5.77;;;4.87;;
67749;SDS011;54550;48.838;8.828;2022-07-24T14:44:28;8.67;;;6.70;;
67749;SDS011;54550;48.838;8.828;2022-07-24T14:46:53;7.03;;;5.00;;
67749;SDS011;54550;48.838;8.828;2022-07-24T14:49:19;6.30;;;5.23;;
67749;SDS011;54550;48.838;8.828;2022-07-24T14:51:45;5.07;;;4.60;;
67749;SDS011;54550;48.838;8.828;2022-07-24T14:54:10;5.57;;;5.00;;
67749;SDS011;54550;48.838;8.828;2022-07-24T14:56:36;6.67;;;6.03;;
67749;SDS011;54550;48.838;8.828;2022-07-24T14:59:03;8.40;;;6.07;;
67749;SDS011;54550;48.838;8.828;2022-07-24T15:01:29;13.17;;;6.13;;
67749;SDS011;54550;48.838;8.828;2022-07-24T15:03:54;7.77;;;6.90;;
67749;SDS011;54550;48.838;8.828;2022-07-24T15:06:20;8.60;;;6.30;;
67749;SDS011;54550;48.838;8.828;2022-07-24T15:08:46;7.77;;;5.80;;
67749;SDS011;54550;48.838;8.828;2022-07-24T15:11:11;9.33;;;6.07;;
67749;SDS011;54550;48.838;8.828;2022-07-24T15:13:37;6.10;;;5.50;;
67749;SDS011;54550;48.838;8.828;2022-07-24T15:16:05;7.87;;;5.37;;
67749;SDS011;54550;48.838;8.828;2022-07-24T15:18:31;8.43;;;5.60;;
67749;SDS011;54550;48.838;8.828;2022-07-24T15:20:57;6.53;;;5.20;;
67749;SDS011;54550;48.838;8.828;2022-07-24T15:23:22;6.77;;;6.07;;
67749;SDS011;54550;48.838;8.828;2022-07-24T15:25:48;6.67;;;5.70;;
67749;SDS011;54550;48.838;8.828;2022-07-24T15:28:13;6.00;;;5.40;;